Time;durP1;ratioP1;P1;durP2;ratioP2;P2;SDS_P1;SDS_P2;PMS_P1;PMS_P2;Temp;Humidity;BMP_temperature;BMP_pressure;BME280_temperature;BME280_humidity;BME280_pressure;Samples;Min_cycle;Max_cycle;Signal;HPM_P1;HPM_P2
2024/02/22 10:47:13;;;;;;;22.30;13.30;;;;;;;16.17;63.41;100855.80;106475;1253;63229;-90
2024/02/22 10:49:48;;;;;;;16.10;10.10;;;;;;;16.25;62.04;100859.97;107361;1253;61155;-92
2024/02/22 10:52:24;;;;;;;15.10;9.30;;;;;;;16.24;61.03;100857.11;106854;1253;75791;-92
2024/02/22 10:55:03;;;;;;;15.40;9.70;;;;;;;16.31;60.42;100851.09;106311;1254;71142;-92
2024/02/22 10:57:37;;;;;;;17.90;10.90;;;;;;;16.23;60.75;100856.09;107302;1253;73450;-93
2024/02/22 11:00:12;;;;;;;16.10;10.00;;;;;;;16.24;61.55;100854.03;107449;1254;60065;-94
2024/02/22 11:02:46;;;;;;;16.50;11.00;;;;;;;16.32;62.54;100853.34;107630;1259;61244;-92
2024/02/22 11:05:20;;;;;;;20.70;14.40;;;;;;;16.40;62.35;100853.87;106961;1253;74993;-92
2024/02/22 11:07:55;;;;;;;11.30;7.50;;;;;;;16.46;61.17;100846.45;107734;1254;69871;-92
2024/02/22 11:10:31;;;;;;;16.80;11.40;;;;;;;16.48;59.68;100849.06;108092;1253;72462;-92
2024/02/22 11:13:05;;;;;;;14.00;9.00;;;;;;;16.38;60.11;100848.83;107122;1254;61216;-94
2024/02/22 11:15:41;;;;;;;16.50;8.90;;;;;;;16.40;60.81;100841.80;107283;1252;61202;-93
2024/02/22 11:18:23;;;;;;;17.80;10.30;;;;;;;16.53;60.28;100838.70;107298;1254;75660;-92
2024/02/22 11:20:51;;;;;;;16.60;10.10;;;;;;;16.57;58.40;100833.20;107094;1257;69616;-92
2024/02/22 11:23:23;;;;;;;13.70;8.40;;;;;;;16.62;58.40;100833.03;107230;1254;72729;-93
2024/02/22 11:25:58;;;;;;;17.70;10.10;;;;;;;16.64;58.44;100836.85;107066;1259;61184;-92
2024/02/22 11:28:29;;;;;;;15.90;9.80;;;;;;;16.67;58.27;100828.83;107269;1253;61131;-93
2024/02/22 11:31:11;;;;;;;17.80;11.40;;;;;;;16.63;59.04;100827.58;107411;1254;76637;-92
2024/02/22 11:33:45;;;;;;;16.20;10.50;;;;;;;16.57;58.03;100821.33;106614;1254;71028;-93
2024/02/22 11:36:20;;;;;;;16.40;9.70;;;;;;;16.57;57.86;100819.67;107310;1253;75495;-92
2024/02/22 11:39:00;;;;;;;18.60;11.50;;;;;;;16.57;58.69;100817.56;107870;1254;62654;-92
2024/02/22 11:41:34;;;;;;;17.70;12.60;;;;;;;16.63;58.31;100818.20;107991;1253;61307;-93
2024/02/22 11:47:25;;;;;;;17.20;12.10;;;;;;;16.76;57.15;100802.96;103165;1290;606701;-86
2024/02/22 11:49:53;;;;;;;13.10;8.20;;;;;;;16.72;55.45;100803.38;105532;1266;62177;-86
2024/02/22 11:52:22;;;;;;;16.60;10.80;;;;;;;16.69;55.16;100804.55;105634;1269;61056;-86
2024/02/22 11:54:51;;;;;;;16.20;10.40;;;;;;;16.62;54.86;100800.77;105571;1269;73512;-87
2024/02/22 11:57:19;;;;;;;16.60;10.80;;;;;;;16.70;54.57;100797.73;105537;1266;70699;-86
2024/02/22 11:59:48;;;;;;;15.40;9.10;;;;;;;16.71;54.39;100794.23;105389;1267;73713;-86
2024/02/22 12:02:22;;;;;;;15.80;9.60;;;;;;;16.63;54.15;100787.42;105511;1269;185494;-86
2024/02/22 12:04:54;;;;;;;12.50;7.90;;;;;;;16.61;53.90;100789.79;105728;1264;62235;-86
2024/02/22 12:07:28;;;;;;;14.60;8.70;;;;;;;16.60;53.76;100784.89;105896;1263;74208;-86
2024/02/22 12:10:00;;;;;;;13.80;9.40;;;;;;;16.58;54.15;100784.66;105790;1263;71058;-85
2024/02/22 12:12:33;;;;;;;20.30;12.80;;;;;;;16.56;55.05;100781.57;105577;1266;73568;-86
2024/02/22 12:15:05;;;;;;;14.80;8.50;;;;;;;16.51;55.11;100778.33;105810;1267;59936;-86
2024/02/22 12:17:39;;;;;;;16.00;9.90;;;;;;;16.50;54.45;100782.20;105783;1263;59907;-86
2024/02/22 12:20:15;;;;;;;15.60;9.20;;;;;;;16.48;54.77;100780.27;105839;1263;74871;-86
2024/02/22 12:22:53;;;;;;;16.20;10.50;;;;;;;16.53;54.04;100777.94;106099;1266;71147;-86
2024/02/22 12:25:24;;;;;;;15.20;9.70;;;;;;;16.65;53.25;100778.27;105863;1263;73625;-86
2024/02/22 12:27:58;;;;;;;12.70;7.70;;;;;;;16.70;52.82;100777.98;105957;1265;62292;-88
2024/02/22 12:30:27;;;;;;;16.40;9.70;;;;;;;16.86;52.63;100773.45;105909;1263;62221;-88
2024/02/22 12:33:01;;;;;;;12.60;8.40;;;;;;;16.91;52.05;100769.85;106047;1266;75169;-88
2024/02/22 12:35:32;;;;;;;12.10;7.50;;;;;;;17.05;51.24;100772.34;105654;1263;71080;-87
2024/02/22 12:38:05;;;;;;;21.00;11.90;;;;;;;17.18;50.39;100773.40;105898;1269;74826;-86
2024/02/22 12:40:38;;;;;;;14.10;9.30;;;;;;;17.30;49.78;100768.18;105868;1263;62517;-86
2024/02/22 12:43:15;;;;;;;12.80;8.50;;;;;;;17.32;49.26;100769.66;105627;1263;62065;-86
2024/02/22 12:45:50;;;;;;;13.80;9.00;;;;;;;17.22;49.14;100772.80;105547;1263;75187;-86
2024/02/22 12:48:24;;;;;;;12.40;7.60;;;;;;;17.28;49.48;100767.02;105576;1263;70571;-85
2024/02/22 12:50:52;;;;;;;11.80;7.50;;;;;;;17.40;49.33;100761.27;105615;1267;75141;-87
2024/02/22 12:53:20;;;;;;;10.40;6.50;;;;;;;17.53;49.10;100756.86;105681;1265;61482;-87
2024/02/22 12:55:48;;;;;;;9.40;6.50;;;;;;;17.42;48.31;100754.04;105615;1263;60341;-87
2024/02/22 12:58:16;;;;;;;9.70;6.50;;;;;;;17.41;48.51;100754.52;105612;1265;75456;-89
2024/02/22 13:00:45;;;;;;;10.60;6.50;;;;;;;17.36;48.75;100749.45;105547;1264;70033;-89
2024/02/22 13:03:17;;;;;;;11.60;6.40;;;;;;;17.29;48.52;100744.92;105654;1264;73422;-89
2024/02/22 13:05:49;;;;;;;12.00;8.00;;;;;;;17.31;48.52;100745.56;105656;1264;61126;-89
2024/02/22 13:08:21;;;;;;;12.80;8.10;;;;;;;17.31;48.92;100745.46;105663;1265;60071;-89
2024/02/22 13:10:58;;;;;;;8.90;5.90;;;;;;;17.38;49.08;100746.54;105654;1264;74862;-88
2024/02/22 13:13:27;;;;;;;10.80;6.80;;;;;;;17.43;48.39;100739.86;105660;1266;69900;-88
2024/02/22 13:16:00;;;;;;;10.10;6.00;;;;;;;17.44;47.30;100737.52;105547;1269;74091;-86
2024/02/22 13:18:32;;;;;;;10.40;6.30;;;;;;;17.44;47.16;100745.09;105997;1271;61961;-87
2024/02/22 13:21:05;;;;;;;8.30;5.40;;;;;;;17.43;47.05;100742.74;105682;1264;61145;-87
2024/02/22 13:23:36;;;;;;;10.20;6.00;;;;;;;17.40;47.29;100742.17;105660;1264;74503;-84
2024/02/22 13:26:09;;;;;;;7.60;5.20;;;;;;;17.54;46.90;100735.91;105607;1263;70839;-88
2024/02/22 13:28:40;;;;;;;9.60;5.50;;;;;;;17.54;46.23;100730.52;105675;1269;74964;-87
2024/02/22 13:31:12;;;;;;;8.80;6.30;;;;;;;17.48;46.26;100738.19;105573;1263;60952;-85
2024/02/22 13:33:46;;;;;;;12.60;7.00;;;;;;;17.52;46.52;100737.56;105710;1266;62013;-88
2024/02/22 13:36:19;;;;;;;11.60;7.80;;;;;;;17.60;46.43;100740.93;108633;1265;74902;-86
2024/02/22 13:41:58;;;;;;;10.90;7.00;;;;;;;17.73;45.68;100730.90;103494;1286;600881;-86
2024/02/22 13:44:26;;;;;;;8.50;6.00;;;;;;;17.76;45.32;100724.51;105569;1266;61744;-86
2024/02/22 13:46:58;;;;;;;294.50;108.10;;;;;;;17.77;44.76;100725.94;105910;1262;60914;-87
2024/02/22 13:49:26;;;;;;;50.20;23.30;;;;;;;17.61;44.99;100724.04;106032;1258;73729;-87
2024/02/22 13:51:55;;;;;;;10.60;7.10;;;;;;;17.56;45.16;100722.81;105880;1262;69998;-86
2024/02/22 13:54:33;;;;;;;8.40;4.90;;;;;;;17.53;45.35;100724.17;105903;1262;221557;-88
2024/02/22 13:57:02;;;;;;;9.90;4.70;;;;;;;17.45;45.15;100725.50;106035;1260;61122;-87
2024/02/22 13:59:30;;;;;;;7.00;4.20;;;;;;;17.38;45.33;100722.81;106131;1257;62140;-88
2024/02/22 14:01:58;;;;;;;9.40;5.30;;;;;;;17.24;44.53;100721.06;106143;1260;75016;-87
2024/02/22 14:04:32;;;;;;;7.50;5.00;;;;;;;17.17;44.58;100724.84;106292;1257;70971;-86
2024/02/22 14:07:00;;;;;;;5.70;3.70;;;;;;;17.08;44.78;100720.59;106030;1256;74645;-87
2024/02/22 14:09:29;;;;;;;5.60;4.20;;;;;;;16.95;44.85;100728.89;106051;1256;61856;-87
2024/02/22 14:11:57;;;;;;;5.40;3.80;;;;;;;16.84;45.05;100723.48;106121;1256;62101;-85
2024/02/22 14:14:31;;;;;;;7.40;3.70;;;;;;;16.75;45.24;100718.27;106271;1256;75161;-87
2024/02/22 14:17:01;;;;;;;4.60;3.50;;;;;;;16.69;45.48;100717.85;105936;1256;69820;-86
2024/02/22 14:19:29;;;;;;;5.70;3.20;;;;;;;16.56;46.02;100717.08;106268;1256;76076;-87
2024/02/22 14:21:57;;;;;;;4.80;3.10;;;;;;;16.49;46.83;100714.04;106081;1256;62353;-86
2024/02/22 14:24:26;;;;;;;4.80;3.50;;;;;;;16.52;47.13;100710.79;106066;1261;63494;-87
2024/02/22 14:26:54;;;;;;;5.20;3.60;;;;;;;16.50;47.29;100713.85;106177;1256;74764;-85
2024/02/22 14:29:21;;;;;;;6.30;3.40;;;;;;;16.60;47.20;100715.26;106136;1257;68663;-84
2024/02/22 14:31:53;;;;;;;6.20;3.40;;;;;;;16.61;47.55;100711.59;106118;1256;73801;-85
2024/02/22 14:34:25;;;;;;;6.30;3.80;;;;;;;16.47;47.86;100712.82;106121;1262;61011;-85
2024/02/22 14:36:58;;;;;;;5.50;3.50;;;;;;;16.42;48.23;100716.08;106097;1256;60627;-85
2024/02/22 14:39:30;;;;;;;4.90;3.20;;;;;;;16.32;48.56;100714.23;106129;1257;74376;-85
2024/02/22 14:42:02;;;;;;;13.50;7.40;;;;;;;16.23;48.91;100713.50;105964;1257;70729;-86
2024/02/22 14:44:43;;;;;;;5.40;3.60;;;;;;;16.08;49.12;100714.98;106118;1259;75061;-86
2024/02/22 14:47:17;;;;;;;4.70;3.50;;;;;;;16.02;49.36;100714.70;106052;1257;62182;-87
2024/02/22 14:49:51;;;;;;;6.00;4.40;;;;;;;15.88;49.52;100718.79;106056;1257;62550;-86
2024/02/22 14:52:31;;;;;;;7.90;4.50;;;;;;;15.79;49.71;100719.37;106076;1261;74844;-86
2024/02/22 14:55:11;;;;;;;7.90;4.90;;;;;;;15.75;49.86;100719.11;106081;1259;69605;-86
2024/02/22 14:57:39;;;;;;;22.50;14.60;;;;;;;15.70;50.11;100722.40;106002;1256;75002;-85
2024/02/22 15:00:20;;;;;;;6.30;3.70;;;;;;;15.73;50.02;100720.88;106138;1256;61903;-86
2024/02/22 15:02:59;;;;;;;51.90;43.40;;;;;;;15.66;50.16;100721.81;106234;1259;61035;-87
2024/02/22 15:05:33;;;;;;;11.90;10.60;;;;;;;15.53;50.55;100719.98;106190;1259;77607;-87
2024/02/22 15:08:08;;;;;;;8.20;6.20;;;;;;;15.24;51.44;100718.13;105991;1256;70597;-86
2024/02/22 15:10:48;;;;;;;32.30;14.00;;;;;;;15.05;52.00;100715.77;106127;1260;74659;-85
2024/02/22 15:13:28;;;;;;;17.10;9.60;;;;;;;14.94;52.42;100713.88;106002;1256;61688;-87
2024/02/22 15:16:04;;;;;;;33.30;22.30;;;;;;;14.87;52.70;100712.90;106285;1253;61183;-85
2024/02/22 15:18:38;;;;;;;11.80;7.70;;;;;;;14.80;52.95;100714.16;106639;1256;75004;-86
2024/02/22 15:21:19;;;;;;;13.40;8.70;;;;;;;14.78;52.88;100719.00;106420;1253;71236;-84
2024/02/22 15:23:59;;;;;;;11.60;6.30;;;;;;;14.73;53.15;100720.45;106495;1253;73834;-86
2024/02/22 15:26:37;;;;;;;18.90;6.70;;;;;;;14.62;53.40;100721.34;106428;1254;61847;-86
2024/02/22 15:29:12;;;;;;;19.30;9.00;;;;;;;14.59;53.72;100722.99;106269;1254;62342;-85
2024/02/22 15:31:52;;;;;;;22.50;13.90;;;;;;;14.52;53.95;100719.44;106366;1256;75865;-86
2024/02/22 15:34:33;;;;;;;28.30;12.50;;;;;;;14.27;54.59;100714.33;106247;1259;71135;-87
2024/02/22 15:37:08;;;;;;;72.70;22.10;;;;;;;14.01;55.76;100715.30;106430;1254;75410;-85
2024/02/22 15:39:43;;;;;;;64.00;20.10;;;;;;;13.93;56.29;100713.97;106504;1253;61104;-86
2024/02/22 15:42:23;;;;;;;56.50;17.50;;;;;;;13.89;56.74;100713.20;106438;1253;60964;-87
2024/02/22 15:45:03;;;;;;;66.40;32.60;;;;;;;13.88;56.91;100716.59;106493;1252;75030;-84
2024/02/22 15:47:37;;;;;;;15.80;8.90;;;;;;;13.80;57.65;100716.61;106507;1253;71075;-85
2024/02/22 15:50:11;;;;;;;31.40;11.50;;;;;;;13.65;58.62;100718.18;106442;1258;74134;-85
2024/02/22 15:52:51;;;;;;;34.30;12.50;;;;;;;13.60;59.60;100720.60;106290;1254;62413;-86
2024/02/22 15:55:31;;;;;;;28.90;10.60;;;;;;;13.56;60.26;100715.05;106444;1267;59772;-86
2024/02/22 15:58:06;;;;;;;36.90;13.50;;;;;;;13.60;60.55;100716.75;106402;1256;74565;-85
2024/02/22 16:00:41;;;;;;;39.30;21.60;;;;;;;13.62;60.85;100718.44;106385;1258;70615;-86
2024/02/22 16:03:21;;;;;;;11.80;6.90;;;;;;;13.60;61.05;100718.02;106376;1253;73744;-87
2024/02/22 16:06:01;;;;;;;18.30;8.10;;;;;;;13.59;61.25;100718.19;106328;1259;60933;-86
2024/02/22 16:08:35;;;;;;;34.00;12.60;;;;;;;13.63;61.07;100722.48;106592;1253;60201;-86
2024/02/22 16:11:09;;;;;;;27.40;10.50;;;;;;;13.45;61.94;100720.73;106543;1256;75148;-87
2024/02/22 16:13:50;;;;;;;26.60;11.00;;;;;;;13.38;62.48;100722.39;106397;1256;70088;-87
2024/02/22 16:16:30;;;;;;;28.30;14.40;;;;;;;13.34;62.68;100727.54;106326;1252;75248;-87
2024/02/22 16:19:04;;;;;;;12.10;7.80;;;;;;;13.15;63.62;100727.27;106502;1253;62157;-87
2024/02/22 16:21:38;;;;;;;12.20;6.70;;;;;;;13.01;65.10;100725.86;106625;1256;60965;-88
2024/02/22 16:24:18;;;;;;;32.00;14.30;;;;;;;12.90;66.42;100729.48;106666;1253;72782;-88
2024/02/22 16:27:01;;;;;;;26.10;10.40;;;;;;;12.99;66.82;100730.10;106521;1253;70560;-89
2024/02/22 16:29:36;;;;;;;14.90;6.90;;;;;;;13.10;65.91;100732.30;106697;1256;74595;-82
2024/02/22 16:32:10;;;;;;;20.90;9.20;;;;;;;12.88;66.93;100732.06;106812;1258;63759;-84
2024/02/22 16:34:51;;;;;;;18.90;10.60;;;;;;;12.71;68.26;100736.55;106681;1253;61273;-83
2024/02/22 16:37:31;;;;;;;11.20;7.60;;;;;;;12.67;68.92;100737.67;106464;1253;76340;-83
2024/02/22 16:40:06;;;;;;;9.60;5.90;;;;;;;12.70;68.94;100739.42;107050;1257;72087;-83
2024/02/22 16:42:40;;;;;;;44.40;18.80;;;;;;;12.65;69.19;100734.90;106655;1254;73849;-83
2024/02/22 16:45:20;;;;;;;40.50;18.40;;;;;;;12.63;69.31;100736.23;106913;1253;62068;-83
2024/02/22 16:48:00;;;;;;;25.60;9.80;;;;;;;12.64;68.91;100737.86;106880;1256;59816;-83
2024/02/22 16:50:43;;;;;;;99.30;54.70;;;;;;;12.64;68.80;100740.55;106695;1257;75458;-84
2024/02/22 16:53:11;;;;;;;40.00;22.90;;;;;;;12.61;69.18;100746.83;106793;1253;71364;-84
2024/02/22 16:55:51;;;;;;;35.50;13.30;;;;;;;12.45;70.01;100741.46;106673;1254;73487;-83
2024/02/22 16:58:31;;;;;;;19.70;7.20;;;;;;;12.43;70.58;100744.21;106618;1253;64015;-83
2024/02/22 17:01:14;;;;;;;17.70;7.60;;;;;;;12.38;70.91;100742.82;106660;1253;60932;-82
2024/02/22 17:03:42;;;;;;;20.70;8.30;;;;;;;12.41;70.78;100743.79;106619;1253;73640;-87
2024/02/22 17:06:22;;;;;;;33.30;16.40;;;;;;;12.40;70.85;100741.27;106681;1254;69301;-87
2024/02/22 17:09:07;;;;;;;17.60;9.10;;;;;;;12.41;70.73;100737.70;106504;1260;72584;-86
2024/02/22 17:11:41;;;;;;;29.80;9.70;;;;;;;12.45;70.39;100737.41;106544;1255;62751;-87
2024/02/22 17:14:16;;;;;;;22.10;7.70;;;;;;;12.35;71.00;100739.55;106403;1253;59955;-87
2024/02/22 17:16:59;;;;;;;20.50;8.20;;;;;;;12.40;70.68;100733.55;106507;1253;76227;-87
2024/02/22 17:19:39;;;;;;;17.50;10.00;;;;;;;12.44;70.20;100731.21;106957;1256;72860;-87
2024/02/22 17:22:13;;;;;;;46.70;28.20;;;;;;;12.41;70.50;100728.06;106788;1255;74963;-87
2024/02/22 17:24:49;;;;;;;42.70;19.40;;;;;;;12.43;70.44;100727.94;106448;1259;62165;-87
2024/02/22 17:27:29;;;;;;;12.40;5.20;;;;;;;12.47;70.14;100732.79;106568;1254;61980;-87
2024/02/22 17:30:11;;;;;;;14.60;6.20;;;;;;;12.45;70.29;100729.67;106471;1263;75116;-85
2024/02/22 17:32:45;;;;;;;8.80;4.50;;;;;;;12.43;70.57;100726.79;106540;1257;69868;-87
2024/02/22 17:35:23;;;;;;;10.20;4.90;;;;;;;12.39;70.75;100726.48;106544;1254;74830;-87
2024/02/22 17:38:06;;;;;;;14.80;8.40;;;;;;;12.35;71.08;100730.19;106485;1254;64021;-85
2024/02/22 17:40:48;;;;;;;24.70;13.30;;;;;;;12.41;70.49;100734.37;106578;1258;60350;-86
2024/02/22 17:43:22;;;;;;;;;;;;;;;12.37;71.02;100733.52;106985;1256;75475;-86
2024/02/22 17:45:56;;;;;;;9.00;4.00;;;;;;;12.34;71.24;100736.05;107055;1253;73283;-87
2024/02/22 17:48:30;;;;;;;13.30;5.70;;;;;;;12.31;71.64;100738.81;106645;1257;72209;-87
2024/02/22 17:51:10;;;;;;;9.30;5.30;;;;;;;12.38;71.14;100741.39;106679;1257;61174;-87
2024/02/22 17:53:46;;;;;;;18.80;11.00;;;;;;;12.34;71.62;100740.99;107440;1253;61181;-87
2024/02/22 17:56:20;;;;;;;15.70;8.90;;;;;;;12.28;71.84;100737.14;106640;1253;73996;-86
2024/02/22 17:59:00;;;;;;;30.50;9.10;;;;;;;12.34;71.53;100736.33;106466;1253;70925;-85
2024/02/22 18:01:41;;;;;;;11.50;4.90;;;;;;;12.32;71.55;100737.82;106325;1254;74962;-83
2024/02/22 18:04:17;;;;;;;7.00;4.30;;;;;;;12.27;71.74;100736.70;106618;1254;61442;-85
2024/02/22 18:06:51;;;;;;;10.20;5.20;;;;;;;12.33;71.19;100734.64;106459;1257;63369;-84
2024/02/22 18:09:32;;;;;;;9.00;4.40;;;;;;;12.36;70.81;100740.98;106293;1259;75619;-84
2024/02/22 18:12:16;;;;;;;8.00;4.40;;;;;;;12.26;71.22;100743.84;106459;1258;70835;-84
2024/02/22 18:14:51;;;;;;;9.60;4.30;;;;;;;12.35;70.89;100743.12;106342;1257;74993;-84
2024/02/22 18:17:25;;;;;;;10.40;4.10;;;;;;;12.36;70.63;100742.62;106296;1254;62040;-84
2024/02/22 18:20:05;;;;;;;6.40;3.60;;;;;;;12.35;70.64;100739.77;106448;1257;60562;-85
2024/02/22 18:22:45;;;;;;;7.80;3.80;;;;;;;12.39;70.34;100738.48;106468;1253;75778;-84
2024/02/22 18:25:21;;;;;;;5.50;3.70;;;;;;;12.34;70.58;100734.24;106388;1254;69296;-84
2024/02/22 18:27:55;;;;;;;4.90;3.50;;;;;;;12.39;70.46;100735.14;106568;1257;74191;-84
2024/02/22 18:30:35;;;;;;;18.30;9.10;;;;;;;12.38;70.09;100736.24;106552;1256;61400;-85
2024/02/22 18:33:16;;;;;;;68.90;35.40;;;;;;;12.39;69.93;100739.20;106436;1257;60727;-83
2024/02/22 18:35:50;;;;;;;4.70;3.10;;;;;;;12.34;70.26;100745.64;106613;1253;74914;-84
2024/02/22 18:38:24;;;;;;;5.90;3.20;;;;;;;12.37;69.95;100748.21;106409;1254;70164;-84
2024/02/22 18:41:06;;;;;;;4.60;3.30;;;;;;;12.44;69.57;100749.58;106460;1257;73754;-85
2024/02/22 18:43:47;;;;;;;4.00;2.70;;;;;;;12.44;69.28;100749.86;106429;1267;62210;-84
2024/02/22 22:44:35;;;;;;;4.10;2.60;;;;;;;10.84;74.12;100762.13;106475;1254;60370;-84
2024/02/22 22:47:12;;;;;;;3.80;2.00;;;;;;;10.84;74.00;100765.13;106610;1254;60451;-85
2024/02/22 22:49:49;;;;;;;3.30;2.20;;;;;;;10.89;73.94;100766.39;106404;1254;73849;-83
2024/02/22 22:52:26;;;;;;;4.00;2.60;;;;;;;10.89;73.79;100761.31;106482;1254;67139;-83
2024/02/22 22:55:03;;;;;;;7.20;3.50;;;;;;;10.85;74.25;100762.89;106498;1251;72489;-83
2024/02/22 22:57:38;;;;;;;3.60;2.40;;;;;;;10.89;74.20;100763.98;106352;1251;61068;-84
2024/02/22 23:00:26;;;;;;;6.20;3.30;;;;;;;10.85;74.51;100764.21;106490;1256;60576;-84
2024/02/22 23:02:56;;;;;;;6.00;3.10;;;;;;;10.88;74.42;100765.13;106466;1254;72559;-83
2024/02/22 23:05:25;;;;;;;5.80;2.70;;;;;;;10.85;74.61;100768.74;106534;1251;68732;-84
2024/02/22 23:07:56;;;;;;;4.00;2.50;;;;;;;10.92;74.48;100769.02;106365;1256;70924;-84
2024/02/22 23:10:30;;;;;;;4.80;3.00;;;;;;;10.91;74.35;100772.63;106471;1254;60437;-84
2024/02/22 23:13:02;;;;;;;4.90;2.70;;;;;;;10.86;75.05;100777.34;106520;1257;60371;-83
2024/02/22 23:15:34;;;;;;;4.70;2.70;;;;;;;10.87;74.89;100774.05;106385;1253;73840;-84
2024/02/22 23:18:06;;;;;;;4.20;2.00;;;;;;;10.76;75.56;100774.65;106754;1253;68455;-84
2024/02/22 23:20:38;;;;;;;6.00;3.00;;;;;;;10.67;76.57;100776.77;106393;1257;71444;-83
2024/02/22 23:23:10;;;;;;;4.70;2.90;;;;;;;10.64;76.95;100777.20;106305;1251;60313;-83
2024/02/22 23:25:41;;;;;;;8.30;2.60;;;;;;;10.62;77.40;100779.89;106375;1252;60514;-84
2024/02/22 23:28:14;;;;;;;2.90;2.20;;;;;;;10.63;77.51;100782.30;106396;1251;73876;-83
2024/02/22 23:30:46;;;;;;;3.30;2.20;;;;;;;10.65;77.60;100780.38;106482;1251;67781;-83
2024/02/22 23:33:20;;;;;;;3.30;2.10;;;;;;;10.50;78.77;100776.65;106290;1253;72735;-84
2024/02/22 23:35:51;;;;;;;4.30;2.80;;;;;;;10.59;78.36;100775.67;106630;1251;60486;-84
2024/02/22 23:38:22;;;;;;;5.00;2.50;;;;;;;10.51;79.13;100775.71;106513;1252;60411;-84
2024/02/22 23:40:55;;;;;;;4.80;2.80;;;;;;;10.49;79.40;100779.97;106305;1251;73855;-83
2024/02/22 23:43:44;;;;;;;10.20;4.60;;;;;;;10.50;79.55;100782.72;106484;1251;66774;-84
2024/02/22 23:46:14;;;;;;;3.20;2.20;;;;;;;10.46;80.02;100781.60;106399;1255;71429;-84
2024/02/22 23:48:43;;;;;;;9.50;5.00;;;;;;;10.48;80.17;100782.33;106337;1253;60386;-83
2024/02/22 23:51:12;;;;;;;4.80;2.70;;;;;;;10.54;80.02;100784.30;106379;1251;60356;-82
2024/02/22 23:53:42;;;;;;;4.30;2.80;;;;;;;10.53;79.78;100775.66;106340;1251;72603;-82
2024/02/22 23:56:12;;;;;;;4.70;2.40;;;;;;;10.49;80.31;100778.30;106576;1256;67112;-84
2024/02/22 23:58:41;;;;;;;3.90;2.60;;;;;;;10.47;80.47;100780.30;106583;1251;72627;-83
